Time;durP1;ratioP1;P1;durP2;ratioP2;P2;SDS_P1;SDS_P2;PMS_P1;PMS_P2;Temp;Humidity;BMP_temperature;BMP_pressure;BME280_temperature;BME280_humidity;BME280_pressure;Samples;Min_cycle;Max_cycle;Signal;HPM_P1;HPM_P2
2021/12/19 00:08:27;;;;;;;111.97;101.25;;;8.20;99.90;;;;;;5024107;28;20057;-75
2021/12/19 00:10:15;;;;;;;112.72;101.75;;;8.20;99.90;;;;;;5033590;28;20050;-75
2021/12/19 00:12:43;;;;;;;114.05;103.18;;;8.20;99.90;;;;;;5037048;28;20145;-75
2021/12/19 00:15:11;;;;;;;113.53;102.60;;;8.20;99.90;;;;;;5034680;28;20069;-75
2021/12/19 00:17:38;;;;;;;113.40;102.30;;;8.20;99.90;;;;;;5034310;28;20057;-75
2021/12/19 00:20:06;;;;;;;113.13;102.22;;;8.20;99.90;;;;;;5034736;28;20038;-75
2021/12/19 00:22:33;;;;;;;114.38;103.38;;;8.20;99.90;;;;;;5034311;28;20060;-75
2021/12/19 00:25:00;;;;;;;112.75;101.93;;;8.20;99.90;;;;;;5036127;28;20148;-75
2021/12/19 00:27:28;;;;;;;114.05;103.05;;;8.20;99.90;;;;;;5034124;28;21038;-75
2021/12/19 00:29:56;;;;;;;114.60;103.60;;;8.20;99.90;;;;;;5034713;28;20050;-75
2021/12/19 00:32:23;;;;;;;112.45;101.70;;;8.20;99.90;;;;;;5034833;28;20054;-75
2021/12/19 00:34:51;;;;;;;113.20;102.07;;;8.20;99.90;;;;;;5034519;28;20136;-75
2021/12/19 00:37:19;;;;;;;114.43;103.15;;;8.20;99.90;;;;;;5034378;28;20056;-75
2021/12/19 00:39:47;;;;;;;114.07;102.75;;;8.20;99.90;;;;;;5034322;28;20046;-76
2021/12/19 00:42:25;;;;;;;115.28;104.07;;;8.20;99.90;;;;;;5035600;28;20058;-75
2021/12/19 00:44:53;;;;;;;115.82;104.65;;;8.20;99.90;;;;;;5033530;28;20108;-75
2021/12/19 00:47:22;;;;;;;115.78;104.70;;;8.20;99.90;;;;;;5015635;28;20057;-75
2021/12/19 00:49:49;;;;;;;116.35;105.05;;;8.20;99.90;;;;;;5034051;28;20590;-75
2021/12/19 00:52:16;;;;;;;114.25;103.15;;;8.20;99.90;;;;;;5034547;28;20050;-75
2021/12/19 00:54:43;;;;;;;115.75;104.55;;;8.20;99.90;;;;;;5034398;28;20076;-75
2021/12/19 00:57:10;;;;;;;115.38;104.10;;;8.20;99.90;;;;;;5034436;28;20133;-75
2021/12/19 00:59:37;;;;;;;116.63;104.95;;;8.20;99.90;;;;;;5017506;28;20427;-75
2021/12/19 01:02:05;;;;;;;115.32;104.00;;;8.20;99.90;;;;;;5033569;28;20056;-75
2021/12/19 01:04:33;;;;;;;116.55;105.13;;;8.20;99.90;;;;;;5050643;28;20086;-76
2021/12/19 01:07:01;;;;;;;116.13;104.90;;;8.20;99.90;;;;;;5033642;28;20136;-75
2021/12/19 01:09:30;;;;;;;115.57;104.40;;;8.20;99.90;;;;;;5033548;28;20049;-75
2021/12/19 01:11:58;;;;;;;116.55;105.15;;;8.20;99.90;;;;;;5034021;28;20060;-75
2021/12/19 01:14:25;;;;;;;115.82;104.32;;;8.20;99.90;;;;;;5034914;28;20065;-75
2021/12/19 01:16:53;;;;;;;115.00;103.70;;;8.20;99.90;;;;;;5033831;28;20103;-75
2021/12/19 01:19:19;;;;;;;112.60;101.88;;;8.20;99.90;;;;;;5033584;28;20054;-75
2021/12/19 01:21:48;;;;;;;110.32;99.93;;;8.20;99.90;;;;;;5032828;28;20070;-75
2021/12/19 01:24:15;;;;;;;110.07;99.47;;;8.20;99.90;;;;;;5050315;28;20058;-75
2021/12/19 01:26:43;;;;;;;110.15;99.70;;;8.20;99.90;;;;;;5033806;28;20058;-75
2021/12/19 01:29:10;;;;;;;110.18;99.75;;;8.20;99.90;;;;;;5033349;28;20046;-75
2021/12/19 01:31:37;;;;;;;109.57;99.10;;;8.20;99.90;;;;;;5033621;28;20045;-75
2021/12/19 01:34:04;;;;;;;110.78;100.18;;;8.20;99.90;;;;;;5050203;28;20128;-75
2021/12/19 01:36:32;;;;;;;109.18;98.78;;;8.20;99.90;;;;;;5033602;28;20045;-75
2021/12/19 01:39:00;;;;;;;110.03;99.53;;;8.20;99.90;;;;;;5033274;28;20058;-75
2021/12/19 01:41:27;;;;;;;112.07;101.28;;;8.20;99.90;;;;;;5033484;28;20108;-75
2021/12/19 01:43:54;;;;;;;111.78;100.78;;;8.30;99.90;;;;;;5033809;28;20153;-75
2021/12/19 01:46:21;;;;;;;111.60;100.82;;;8.30;99.90;;;;;;5033198;28;20056;-75
2021/12/19 01:48:48;;;;;;;110.95;100.40;;;8.30;99.90;;;;;;5032854;28;20137;-75
2021/12/19 01:51:15;;;;;;;111.25;100.55;;;8.20;99.90;;;;;;5034665;28;20076;-75
2021/12/19 01:53:43;;;;;;;110.88;100.35;;;8.20;99.90;;;;;;5032925;28;20096;-75
2021/12/19 01:56:11;;;;;;;110.38;99.88;;;8.20;99.90;;;;;;5033072;28;20136;-75
2021/12/19 01:58:38;;;;;;;108.35;98.13;;;8.30;99.90;;;;;;5032874;28;20134;-75
2021/12/19 02:01:06;;;;;;;109.05;98.75;;;8.30;99.90;;;;;;5033226;28;20104;-75
2021/12/19 02:03:36;;;;;;;109.60;99.30;;;8.20;99.90;;;;;;5033117;28;20141;-75
2021/12/19 02:06:03;;;;;;;108.90;98.50;;;8.20;99.90;;;;;;5033088;28;20076;-75
2021/12/19 02:08:30;;;;;;;109.75;99.45;;;8.20;99.90;;;;;;5032830;28;20130;-75
2021/12/19 02:10:58;;;;;;;109.32;98.95;;;8.30;99.90;;;;;;5032880;28;20057;-75
2021/12/19 02:13:26;;;;;;;110.03;99.63;;;8.30;99.90;;;;;;5033030;28;20058;-76
2021/12/19 02:15:53;;;;;;;109.93;99.45;;;8.20;99.90;;;;;;5032870;28;20494;-75
2021/12/19 02:18:22;;;;;;;109.00;98.80;;;8.30;99.90;;;;;;5032588;28;20040;-75
2021/12/19 02:20:53;;;;;;;108.93;98.63;;;8.20;99.90;;;;;;5033226;28;20049;-75
2021/12/19 02:23:22;;;;;;;110.22;99.82;;;8.20;99.90;;;;;;5034473;28;20570;-75
2021/12/19 02:25:50;;;;;;;109.88;99.53;;;8.30;99.90;;;;;;5033108;28;20057;-75
2021/12/19 02:28:17;;;;;;;110.25;99.70;;;8.20;99.90;;;;;;5032762;28;20507;-75
2021/12/19 02:30:45;;;;;;;110.57;100.18;;;8.20;99.90;;;;;;5032781;28;20050;-75
2021/12/19 02:33:18;;;;;;;110.18;99.82;;;8.20;99.90;;;;;;5032217;28;20063;-75
2021/12/19 02:35:52;;;;;;;108.90;98.60;;;8.20;99.90;;;;;;5032648;28;20065;-75
2021/12/19 02:49:25;;;;;;;108.97;98.68;;;8.20;99.90;;;;;;5033532;28;20042;-75
2021/12/19 02:51:54;;;;;;;108.40;98.13;;;8.20;99.90;;;;;;5032656;28;20042;-75
2021/12/19 02:54:23;;;;;;;110.05;99.55;;;8.20;99.90;;;;;;5032549;28;20539;-75
2021/12/19 02:56:51;;;;;;;108.47;98.18;;;8.10;99.90;;;;;;5033940;28;20511;-76
2021/12/19 02:59:19;;;;;;;107.88;97.68;;;8.10;99.90;;;;;;5015074;28;20050;-75
2021/12/19 03:01:47;;;;;;;109.13;98.70;;;8.10;99.90;;;;;;5033722;28;20148;-75
2021/12/19 03:04:15;;;;;;;109.63;99.22;;;8.10;99.90;;;;;;5031120;28;20137;-75
2021/12/19 03:06:46;;;;;;;109.35;98.93;;;8.10;99.90;;;;;;5032530;28;20049;-75
2021/12/19 03:09:19;;;;;;;109.60;99.22;;;8.10;99.90;;;;;;5033350;28;20053;-75
2021/12/19 03:12:06;;;;;;;108.40;98.20;;;8.10;99.90;;;;;;5033636;28;20104;-75
2021/12/19 03:20:04;;;;;;;107.20;96.88;;;8.00;99.90;;;;;;5032237;28;20108;-75
2021/12/19 03:22:31;;;;;;;107.75;97.38;;;8.10;99.90;;;;;;5031676;28;20092;-75
2021/12/19 03:24:59;;;;;;;107.35;97.15;;;8.00;99.90;;;;;;5015693;28;20057;-75
2021/12/19 03:27:27;;;;;;;106.95;96.85;;;8.00;99.90;;;;;;5031521;28;20081;-75
2021/12/19 03:29:54;;;;;;;106.82;96.65;;;8.00;99.90;;;;;;5031821;28;20129;-75
2021/12/19 03:32:23;;;;;;;107.55;97.25;;;8.00;99.90;;;;;;5031868;28;20053;-75
2021/12/19 03:34:50;;;;;;;107.10;96.90;;;8.00;99.90;;;;;;5015622;28;20050;-75
2021/12/19 03:37:17;;;;;;;107.50;97.30;;;8.00;99.90;;;;;;5033073;28;20056;-75
2021/12/19 03:39:56;;;;;;;106.57;96.40;;;8.00;99.90;;;;;;5031898;28;20132;-75
2021/12/19 03:42:24;;;;;;;108.65;98.28;;;8.00;99.90;;;;;;5032633;28;20060;-75
2021/12/19 03:44:53;;;;;;;107.13;96.82;;;8.00;99.90;;;;;;5033901;28;20056;-75
2021/12/19 03:47:20;;;;;;;107.93;97.63;;;8.00;99.90;;;;;;5034579;28;20140;-75
2021/12/19 03:49:47;;;;;;;106.95;96.75;;;8.00;99.90;;;;;;5036511;28;20054;-75
2021/12/19 03:52:15;;;;;;;108.35;98.10;;;8.00;99.90;;;;;;5036308;28;20057;-75
2021/12/19 03:54:42;;;;;;;108.45;98.05;;;8.00;99.90;;;;;;5051729;28;20060;-75
2021/12/19 03:57:09;;;;;;;107.55;97.15;;;8.00;99.90;;;;;;5034974;28;20057;-75
2021/12/19 03:59:37;;;;;;;107.60;97.43;;;8.00;99.90;;;;;;5051778;28;20049;-75
2021/12/19 04:02:05;;;;;;;107.78;97.47;;;8.00;99.90;;;;;;5034848;28;20529;-75
2021/12/19 04:04:36;;;;;;;107.18;97.07;;;8.00;99.90;;;;;;5035037;28;20480;-75
2021/12/19 04:07:04;;;;;;;107.90;97.70;;;8.00;99.90;;;;;;5034909;28;20104;-75
2021/12/19 04:09:31;;;;;;;107.63;97.53;;;8.00;99.90;;;;;;5034647;28;20084;-75
2021/12/19 04:11:58;;;;;;;107.75;97.50;;;8.00;99.90;;;;;;5034686;28;20129;-75
2021/12/19 04:14:25;;;;;;;107.57;97.30;;;8.10;99.90;;;;;;5035974;28;20058;-75
2021/12/19 04:16:52;;;;;;;108.40;98.10;;;8.00;99.90;;;;;;5034759;28;20515;-75
2021/12/19 04:19:21;;;;;;;108.25;97.95;;;8.10;99.90;;;;;;5034585;28;20074;-75
2021/12/19 04:21:48;;;;;;;108.10;97.90;;;8.10;99.90;;;;;;5036159;28;20104;-75
2021/12/19 04:24:16;;;;;;;108.80;98.50;;;8.10;99.90;;;;;;5034547;28;20057;-75
2021/12/19 04:26:42;;;;;;;107.90;97.60;;;8.10;99.90;;;;;;5034633;28;20050;-75
2021/12/19 04:29:10;;;;;;;108.55;98.05;;;8.10;99.90;;;;;;5034331;28;20109;-75
2021/12/19 04:31:38;;;;;;;108.15;97.90;;;8.10;99.90;;;;;;5034483;28;20459;-75
2021/12/19 04:34:05;;;;;;;108.80;98.55;;;8.10;99.90;;;;;;5034406;28;20049;-75
2021/12/19 04:36:38;;;;;;;108.32;98.03;;;8.10;99.90;;;;;;5034437;28;20125;-75
2021/12/19 04:53:07;;;;;;;109.07;98.47;;;8.00;99.90;;;;;;5034232;28;20042;-75
2021/12/19 04:58:46;;;;;;;107.20;96.80;;;8.00;99.90;;;;;;5026275;28;20606;-75
2021/12/19 05:01:26;;;;;;;107.70;97.43;;;8.00;99.80;;;;;;5033700;28;20057;-75
2021/12/19 05:04:06;;;;;;;107.57;97.28;;;7.90;99.80;;;;;;5034182;28;20085;-75
2021/12/19 05:06:51;;;;;;;107.78;97.47;;;7.90;99.80;;;;;;5033866;28;20057;-75
2021/12/19 05:14:52;;;;;;;107.88;97.38;;;7.90;99.90;;;;;;5035787;28;19932;-75
2021/12/19 05:17:24;;;;;;;107.80;97.30;;;7.90;99.90;;;;;;5033501;28;20057;-75
2021/12/19 05:20:04;;;;;;;107.57;97.28;;;7.90;99.90;;;;;;5033946;28;20077;-75
2021/12/19 05:22:35;;;;;;;106.85;96.55;;;7.90;99.90;;;;;;5034136;28;20626;-75
2021/12/19 05:25:14;;;;;;;106.50;96.20;;;7.90;99.90;;;;;;5035372;28;20054;-75
2021/12/19 05:27:45;;;;;;;107.72;97.22;;;7.90;99.90;;;;;;5033973;28;20054;-75
2021/12/19 05:30:14;;;;;;;107.57;97.38;;;7.90;99.90;;;;;;5035238;28;20510;-75
2021/12/19 05:32:42;;;;;;;106.43;96.07;;;7.90;99.90;;;;;;5033929;28;20060;-75
2021/12/19 05:35:12;;;;;;;107.70;97.35;;;7.90;99.90;;;;;;5033816;28;20871;-75
2021/12/19 05:46:19;;;;;;;108.72;98.10;;;7.90;99.90;;;;;;5035266;28;20097;-76
2021/12/19 05:49:11;;;;;;;106.85;96.35;;;7.90;99.90;;;;;;5037111;28;20141;-75
2021/12/19 05:51:39;;;;;;;109.78;99.18;;;7.90;99.90;;;;;;5033081;28;20089;-75
2021/12/19 05:54:09;;;;;;;112.47;101.50;;;7.90;99.90;;;;;;5033106;28;20046;-75
2021/12/19 05:56:38;;;;;;;112.15;100.78;;;7.90;99.90;;;;;;5033464;28;20072;-75
2021/12/19 05:59:06;;;;;;;110.18;99.28;;;7.90;99.90;;;;;;5033206;28;20104;-75
2021/12/19 06:01:33;;;;;;;111.22;99.63;;;7.90;99.90;;;;;;5050013;28;20064;-75
2021/12/19 06:04:00;;;;;;;109.72;98.82;;;7.90;99.90;;;;;;5033317;28;20046;-75
2021/12/19 06:06:27;;;;;;;111.78;100.35;;;8.00;99.90;;;;;;5032713;28;20057;-75
2021/12/19 06:08:54;;;;;;;112.13;101.07;;;8.00;99.90;;;;;;5032952;28;20046;-75
2021/12/19 06:11:21;;;;;;;110.85;99.90;;;7.90;99.90;;;;;;5032583;28;20058;-75
2021/12/19 06:13:50;;;;;;;114.72;103.15;;;8.00;99.90;;;;;;5033264;28;20050;-75
2021/12/19 06:16:17;;;;;;;112.95;101.43;;;8.00;99.90;;;;;;5032716;28;20058;-75
2021/12/19 06:18:44;;;;;;;114.38;102.53;;;7.90;99.90;;;;;;5033106;28;20050;-75
2021/12/19 06:21:11;;;;;;;114.57;102.80;;;8.00;99.90;;;;;;5032975;28;20843;-75
2021/12/19 06:23:39;;;;;;;113.47;101.85;;;7.90;99.90;;;;;;5034146;28;20069;-75
2021/12/19 06:26:10;;;;;;;112.47;101.25;;;8.00;99.90;;;;;;5034392;28;20124;-75
2021/12/19 06:28:37;;;;;;;111.20;99.97;;;8.00;99.90;;;;;;5033510;28;20053;-75
2021/12/19 06:31:06;;;;;;;112.70;101.28;;;8.00;99.90;;;;;;5033590;28;20136;-75
2021/12/19 06:33:33;;;;;;;113.82;102.05;;;7.90;99.90;;;;;;5032674;28;20116;-75
2021/12/19 06:36:00;;;;;;;116.57;104.78;;;8.00;99.90;;;;;;5033876;28;20085;-75
2021/12/19 06:38:27;;;;;;;115.38;104.00;;;8.00;99.90;;;;;;5032420;28;20061;-75
2021/12/19 06:40:54;;;;;;;114.88;103.13;;;8.00;99.90;;;;;;5032552;28;20184;-75
2021/12/19 06:43:22;;;;;;;118.00;106.18;;;8.00;99.90;;;;;;5032731;28;20136;-75
2021/12/19 06:45:49;;;;;;;115.53;103.28;;;8.00;99.90;;;;;;5032624;28;20064;-75
2021/12/19 06:48:19;;;;;;;118.07;105.63;;;8.00;99.90;;;;;;5032439;28;20061;-75
2021/12/19 06:50:46;;;;;;;115.95;104.30;;;8.00;99.90;;;;;;5033925;28;20162;-75
2021/12/19 06:53:13;;;;;;;116.53;104.90;;;8.00;99.90;;;;;;5049184;28;20518;-75
2021/12/19 06:55:41;;;;;;;117.45;105.57;;;8.00;99.90;;;;;;5032268;28;20125;-75
2021/12/19 06:58:08;;;;;;;117.85;105.57;;;8.00;99.90;;;;;;5033809;28;20069;-75
2021/12/19 07:00:34;;;;;;;117.78;105.60;;;8.00;99.90;;;;;;5032566;28;20099;-75
2021/12/19 07:03:02;;;;;;;118.68;106.38;;;8.10;99.90;;;;;;5032249;28;20042;-75
2021/12/19 07:05:30;;;;;;;118.88;106.15;;;8.10;99.90;;;;;;5033617;28;20085;-75
2021/12/19 07:07:58;;;;;;;115.97;104.00;;;8.10;99.90;;;;;;5032451;28;20061;-75
2021/12/19 07:10:25;;;;;;;121.13;108.55;;;8.10;99.90;;;;;;5031803;28;20137;-75
2021/12/19 07:12:52;;;;;;;118.90;106.80;;;8.10;99.90;;;;;;5032217;28;20137;-75
2021/12/19 07:15:19;;;;;;;118.28;105.53;;;8.10;99.90;;;;;;5015519;28;20568;-75
2021/12/19 07:17:47;;;;;;;119.63;107.65;;;8.10;99.90;;;;;;5033820;28;20054;-75
2021/12/19 07:20:14;;;;;;;119.95;107.65;;;8.10;99.90;;;;;;5035431;28;20058;-75
2021/12/19 07:22:42;;;;;;;119.50;107.45;;;8.10;99.90;;;;;;5035817;28;20038;-75
2021/12/19 07:25:10;;;;;;;120.60;108.13;;;8.10;99.90;;;;;;5034997;28;20130;-75
2021/12/19 07:27:37;;;;;;;119.10;106.65;;;8.10;99.90;;;;;;5018724;28;20046;-75
2021/12/19 07:30:06;;;;;;;119.15;106.57;;;8.10;99.90;;;;;;5035628;28;20058;-75
2021/12/19 07:32:34;;;;;;;118.88;106.40;;;8.20;99.90;;;;;;5035058;28;20057;-75
2021/12/19 07:35:02;;;;;;;115.78;103.78;;;8.20;99.90;;;;;;5036610;28;20129;-75
2021/12/19 07:37:29;;;;;;;116.30;104.35;;;8.10;99.90;;;;;;5034860;28;20616;-75
2021/12/19 07:40:09;;;;;;;115.60;103.53;;;8.20;99.90;;;;;;5036707;28;20054;-75
2021/12/19 07:42:36;;;;;;;115.30;103.03;;;8.10;99.90;;;;;;5035380;28;20045;-76
2021/12/19 07:45:04;;;;;;;113.95;102.18;;;8.10;99.90;;;;;;5018840;28;20054;-75
2021/12/19 07:47:31;;;;;;;113.03;101.50;;;8.10;99.90;;;;;;5036165;28;20060;-75
2021/12/19 07:49:58;;;;;;;112.68;101.38;;;8.10;99.90;;;;;;5035085;28;20129;-75
2021/12/19 07:52:25;;;;;;;115.25;103.35;;;8.10;99.90;;;;;;5034682;28;20384;-75
2021/12/19 07:54:52;;;;;;;117.25;105.15;;;8.10;99.90;;;;;;5034541;28;20153;-75
2021/12/19 07:57:20;;;;;;;116.32;104.43;;;8.20;99.90;;;;;;5034356;28;20590;-75
2021/12/19 07:59:48;;;;;;;116.47;104.38;;;8.10;99.90;;;;;;5051221;28;20050;-75
2021/12/19 08:02:15;;;;;;;113.63;102.22;;;8.20;99.90;;;;;;5033921;28;20108;-74
2021/12/19 08:04:42;;;;;;;116.30;104.60;;;8.20;99.90;;;;;;5041961;28;20057;-75
2021/12/19 08:07:11;;;;;;;118.43;106.72;;;8.20;99.90;;;;;;5026650;28;20608;-75
2021/12/19 08:09:46;;;;;;;116.30;104.97;;;8.20;99.90;;;;;;5041476;28;20061;-75
2021/12/19 08:12:12;;;;;;;115.20;103.57;;;8.20;99.90;;;;;;5042971;28;20128;-75
2021/12/19 08:14:41;;;;;;;113.32;102.18;;;8.20;99.90;;;;;;4985497;28;20050;-75
2021/12/19 08:17:08;;;;;;;118.00;106.32;;;8.20;99.90;;;;;;5025329;28;20064;-75
2021/12/19 08:19:36;;;;;;;114.88;103.60;;;8.20;99.90;;;;;;5035465;28;20054;-75
2021/12/19 08:22:03;;;;;;;117.00;105.25;;;8.20;99.90;;;;;;5034517;28;20046;-75
2021/12/19 08:24:31;;;;;;;117.25;105.15;;;8.20;99.90;;;;;;5035344;28;20129;-75
2021/12/19 08:26:57;;;;;;;115.60;104.18;;;8.20;99.90;;;;;;5033080;28;20057;-75
2021/12/19 08:29:25;;;;;;;114.93;103.40;;;8.20;99.90;;;;;;5033284;28;20077;-75
2021/12/19 08:31:53;;;;;;;112.55;101.43;;;8.20;99.90;;;;;;5034926;28;20496;-75
2021/12/19 08:34:21;;;;;;;114.25;102.70;;;8.20;99.90;;;;;;5038851;28;20136;-75
2021/12/19 08:36:48;;;;;;;111.97;100.75;;;8.10;99.90;;;;;;5036688;28;20050;-75
2021/12/19 08:39:15;;;;;;;112.03;100.40;;;8.10;99.90;;;;;;5039518;28;20046;-75
2021/12/19 08:41:42;;;;;;;114.53;103.15;;;8.10;99.90;;;;;;5036827;28;20045;-75
2021/12/19 08:44:09;;;;;;;112.70;101.47;;;8.10;99.90;;;;;;5040226;28;20582;-75
2021/12/19 08:46:38;;;;;;;111.50;100.20;;;8.10;99.90;;;;;;5019371;28;20054;-75
2021/12/19 08:49:08;;;;;;;113.85;102.35;;;8.10;99.90;;;;;;5040488;28;20140;-75
2021/12/19 08:51:37;;;;;;;114.03;102.40;;;8.10;99.90;;;;;;5060756;28;20050;-75
2021/12/19 08:54:05;;;;;;;110.72;99.80;;;8.10;99.90;;;;;;5040388;28;20081;-75
2021/12/19 08:56:32;;;;;;;112.65;101.80;;;8.20;99.90;;;;;;5034156;28;20042;-75
2021/12/19 08:58:59;;;;;;;111.03;100.00;;;8.10;99.90;;;;;;5033327;28;20064;-75
2021/12/19 09:01:28;;;;;;;115.38;103.97;;;8.20;99.90;;;;;;5028844;28;20066;-75
2021/12/19 09:03:55;;;;;;;112.35;101.40;;;8.20;99.90;;;;;;5031540;28;20084;-75
2021/12/19 09:06:23;;;;;;;113.25;102.03;;;8.10;99.90;;;;;;5035103;28;20076;-75
2021/12/19 09:08:50;;;;;;;112.43;100.68;;;8.10;99.90;;;;;;5038853;28;20161;-75
2021/12/19 09:11:17;;;;;;;114.18;103.18;;;8.10;99.90;;;;;;5033534;28;20148;-75
2021/12/19 09:13:44;;;;;;;113.70;102.68;;;8.20;99.90;;;;;;5035006;28;20058;-75
2021/12/19 09:16:11;;;;;;;111.78;100.63;;;8.20;99.90;;;;;;5038495;28;20530;-75
2021/12/19 09:18:39;;;;;;;112.68;101.65;;;8.10;99.90;;;;;;5036373;28;20133;-75
2021/12/19 09:21:06;;;;;;;113.40;101.70;;;8.20;99.90;;;;;;5047298;28;20050;-75
2021/12/19 09:23:35;;;;;;;113.80;102.13;;;8.20;99.90;;;;;;5039326;28;20057;-75
2021/12/19 09:26:02;;;;;;;116.05;104.47;;;8.20;99.90;;;;;;5044366;28;20080;-74
2021/12/19 09:28:29;;;;;;;117.00;105.55;;;8.20;99.90;;;;;;5041332;28;20770;-75
2021/12/19 09:30:56;;;;;;;115.60;104.00;;;8.20;99.90;;;;;;5024380;28;20056;-75
2021/12/19 09:33:23;;;;;;;117.05;105.60;;;8.20;99.90;;;;;;5024239;28;20512;-75
2021/12/19 09:35:50;;;;;;;117.43;105.72;;;8.20;99.90;;;;;;5037610;28;20046;-75
2021/12/19 09:38:20;;;;;;;116.55;105.07;;;8.20;99.90;;;;;;5034367;28;20054;-75
2021/12/19 09:40:48;;;;;;;116.28;104.80;;;8.20;99.90;;;;;;5032566;28;20052;-74
2021/12/19 09:43:41;;;;;;;115.38;104.03;;;8.20;99.90;;;;;;5032013;28;20085;-74
2021/12/19 09:46:10;;;;;;;116.38;104.88;;;8.20;99.90;;;;;;5064996;28;20104;-74
2021/12/19 09:48:39;;;;;;;116.35;104.78;;;8.20;99.90;;;;;;5034199;28;20132;-74
2021/12/19 09:51:06;;;;;;;116.70;105.07;;;8.20;99.90;;;;;;5033272;28;20054;-74
2021/12/19 09:53:33;;;;;;;115.80;104.05;;;8.20;99.90;;;;;;5039546;28;20136;-75
2021/12/19 09:56:02;;;;;;;114.03;102.60;;;8.20;99.90;;;;;;5032758;28;20050;-75
2021/12/19 09:58:31;;;;;;;113.53;102.20;;;8.20;99.90;;;;;;5037794;28;20579;-75
2021/12/19 10:00:58;;;;;;;115.93;104.45;;;8.20;99.90;;;;;;5039600;28;20046;-75
2021/12/19 10:03:25;;;;;;;114.47;103.13;;;8.20;99.90;;;;;;5049477;28;20140;-75
2021/12/19 10:06:14;;;;;;;112.70;101.45;;;8.20;99.90;;;;;;5052492;28;20049;-75
2021/12/19 10:08:41;;;;;;;114.22;103.05;;;8.20;99.90;;;;;;5054110;28;20054;-76
2021/12/19 10:11:30;;;;;;;113.35;102.45;;;8.20;99.90;;;;;;5052429;28;20041;-75
2021/12/19 10:13:57;;;;;;;116.40;104.88;;;8.20;99.90;;;;;;5052792;28;20053;-76
2021/12/19 10:16:26;;;;;;;113.68;102.47;;;8.30;99.90;;;;;;5052681;28;20051;-75
2021/12/19 10:18:55;;;;;;;113.13;101.88;;;8.30;99.90;;;;;;5062182;28;20062;-75
2021/12/19 10:21:22;;;;;;;114.57;103.07;;;8.30;99.90;;;;;;5047460;28;20073;-75
2021/12/19 10:23:50;;;;;;;114.70;103.30;;;8.30;99.90;;;;;;5052561;28;20049;-75
2021/12/19 10:26:18;;;;;;;115.43;104.00;;;8.30;99.90;;;;;;5051289;28;20046;-75
2021/12/19 10:28:53;;;;;;;112.00;100.63;;;8.30;99.90;;;;;;5040802;28;20489;-75
2021/12/19 10:31:21;;;;;;;114.68;103.10;;;8.30;99.90;;;;;;5034241;28;20085;-75
2021/12/19 10:33:49;;;;;;;109.43;98.57;;;8.30;99.90;;;;;;5042342;28;20057;-75
2021/12/19 10:36:18;;;;;;;113.78;102.70;;;8.30;99.90;;;;;;5038639;28;20164;-75
2021/12/19 10:38:47;;;;;;;111.03;99.75;;;8.30;99.90;;;;;;5035090;28;20158;-75
2021/12/19 10:41:16;;;;;;;112.85;101.50;;;8.30;99.90;;;;;;5033821;28;20571;-75
2021/12/19 10:43:51;;;;;;;112.32;101.25;;;8.30;99.90;;;;;;5033682;28;20527;-75
2021/12/19 10:46:27;;;;;;;112.53;101.47;;;8.30;99.90;;;;;;5064475;28;20538;-75
2021/12/19 10:48:54;;;;;;;111.47;100.18;;;8.30;99.90;;;;;;5041851;28;20538;-76
2021/12/19 10:51:22;;;;;;;112.78;101.45;;;8.30;99.90;;;;;;5041841;28;20046;-75
2021/12/19 10:53:52;;;;;;;110.55;99.50;;;8.30;99.90;;;;;;5043399;28;20124;-77
2021/12/19 10:56:22;;;;;;;114.72;102.95;;;8.30;99.90;;;;;;5063985;28;20133;-75
2021/12/19 10:58:54;;;;;;;110.78;99.80;;;8.30;99.90;;;;;;5040739;28;20576;-75
2021/12/19 11:01:29;;;;;;;109.78;99.07;;;8.40;99.90;;;;;;5041236;28;20046;-75
2021/12/19 11:04:02;;;;;;;112.18;101.05;;;8.40;99.90;;;;;;5038631;28;20081;-75
2021/12/19 11:06:32;;;;;;;113.00;101.50;;;8.40;99.90;;;;;;5040663;28;20050;-75
2021/12/19 11:09:01;;;;;;;109.50;98.47;;;8.40;99.90;;;;;;5038905;28;20057;-75
2021/12/19 11:11:58;;;;;;;109.57;98.22;;;8.40;99.90;;;;;;5042064;28;20064;-75
2021/12/19 11:14:30;;;;;;;109.50;98.15;;;8.40;99.90;;;;;;5000836;28;20122;-75
2021/12/19 11:17:00;;;;;;;111.10;99.90;;;8.40;99.90;;;;;;5032985;28;20046;-76
2021/12/19 11:19:28;;;;;;;110.88;99.45;;;8.40;99.90;;;;;;5031640;28;20050;-75
2021/12/19 11:21:55;;;;;;;108.78;97.88;;;8.40;99.90;;;;;;5031685;28;20073;-75
2021/12/19 11:24:24;;;;;;;110.50;99.15;;;8.40;99.90;;;;;;5031158;28;20050;-75
2021/12/19 11:26:53;;;;;;;109.63;98.22;;;8.40;99.90;;;;;;5014828;28;20658;-75
2021/12/19 11:29:21;;;;;;;110.18;98.95;;;8.50;99.90;;;;;;5031347;28;20050;-75
2021/12/19 11:31:57;;;;;;;111.55;99.93;;;8.50;99.90;;;;;;5032830;28;20096;-76
2021/12/19 11:34:29;;;;;;;109.30;98.30;;;8.50;99.90;;;;;;5032817;28;20057;-76
2021/12/19 11:37:00;;;;;;;113.15;101.78;;;8.50;99.90;;;;;;5037960;28;20168;-76
2021/12/19 11:39:31;;;;;;;111.55;100.30;;;8.50;99.90;;;;;;5051607;28;20091;-76
2021/12/19 11:42:21;;;;;;;115.25;103.60;;;8.50;99.90;;;;;;5051496;28;20124;-75
2021/12/19 11:45:05;;;;;;;112.35;100.82;;;8.50;99.90;;;;;;5051281;28;20049;-75
2021/12/19 11:47:47;;;;;;;110.10;98.90;;;8.50;99.90;;;;;;5051897;28;20045;-75
2021/12/19 11:50:21;;;;;;;111.97;100.57;;;8.60;99.90;;;;;;5051899;28;20108;-75
2021/12/19 11:52:49;;;;;;;111.32;100.32;;;8.60;99.90;;;;;;5051990;28;20057;-74
2021/12/19 11:55:28;;;;;;;111.53;100.53;;;8.60;99.90;;;;;;5050884;28;20497;-75
2021/12/19 11:58:30;;;;;;;111.85;100.45;;;8.60;99.90;;;;;;5050840;28;20038;-75
2021/12/19 12:01:07;;;;;;;112.25;100.93;;;8.60;99.90;;;;;;4987139;28;20054;-75
2021/12/19 12:03:42;;;;;;;111.97;100.15;;;8.60;99.90;;;;;;4980418;28;20943;-75
2021/12/19 12:06:41;;;;;;;110.20;99.10;;;8.60;99.90;;;;;;5014334;28;20510;-74
2021/12/19 12:09:15;;;;;;;112.78;101.10;;;8.70;99.90;;;;;;5043325;28;20414;-74
2021/12/19 12:12:11;;;;;;;111.90;100.30;;;8.70;99.90;;;;;;5040349;28;20498;-75
2021/12/19 12:14:41;;;;;;;113.43;101.15;;;8.70;99.90;;;;;;5068702;28;20045;-75
2021/12/19 12:17:14;;;;;;;109.93;98.78;;;8.70;99.90;;;;;;5043851;28;20545;-75
2021/12/19 12:19:44;;;;;;;109.82;98.53;;;8.70;99.90;;;;;;5040830;28;20056;-75
2021/12/19 12:22:35;;;;;;;109.45;98.25;;;8.70;99.90;;;;;;5043459;28;20084;-75
2021/12/19 12:25:12;;;;;;;109.20;97.88;;;8.70;99.90;;;;;;5041189;28;20038;-75
2021/12/19 12:27:42;;;;;;;111.50;99.95;;;8.70;99.90;;;;;;5046509;28;20063;-75
2021/12/19 12:30:11;;;;;;;111.47;99.90;;;8.70;99.90;;;;;;5038008;28;20052;-75
2021/12/19 12:32:38;;;;;;;109.35;98.20;;;8.70;99.90;;;;;;5054743;28;20382;-75
2021/12/19 12:35:11;;;;;;;110.80;99.38;;;8.70;99.90;;;;;;5054379;28;20136;-75
2021/12/19 12:37:39;;;;;;;111.10;99.22;;;8.70;99.90;;;;;;5054250;28;20128;-74
2021/12/19 12:40:27;;;;;;;110.40;98.72;;;8.70;99.90;;;;;;5050739;28;20049;-74
2021/12/19 12:43:00;;;;;;;110.28;98.72;;;8.70;99.90;;;;;;5044106;28;20053;-74
2021/12/19 12:45:29;;;;;;;109.35;98.20;;;8.70;99.90;;;;;;5040639;28;20046;-74
2021/12/19 12:47:56;;;;;;;110.70;98.95;;;8.70;99.80;;;;;;5025982;28;20076;-74
2021/12/19 12:50:27;;;;;;;109.75;98.03;;;8.70;99.80;;;;;;5044442;28;20061;-74
2021/12/19 12:52:58;;;;;;;110.32;98.95;;;8.70;99.80;;;;;;5027420;28;20049;-75
2021/12/19 12:55:26;;;;;;;111.40;99.95;;;8.70;99.70;;;;;;5064852;28;20050;-74
2021/12/19 12:57:53;;;;;;;110.03;98.40;;;8.70;99.80;;;;;;5034934;28;20054;-74
2021/12/19 13:00:21;;;;;;;110.60;99.13;;;8.70;99.80;;;;;;5035029;28;20520;-75
2021/12/19 13:02:58;;;;;;;110.93;99.13;;;8.70;99.70;;;;;;5042674;28;20489;-75
2021/12/19 13:05:27;;;;;;;109.97;98.50;;;8.70;99.70;;;;;;5038391;28;20046;-75
2021/12/19 13:07:54;;;;;;;112.03;100.00;;;8.70;99.80;;;;;;5053111;28;20132;-75
2021/12/19 13:10:24;;;;;;;109.95;98.35;;;8.60;99.70;;;;;;5052769;28;20512;-75
2021/12/19 13:12:52;;;;;;;109.60;98.40;;;8.60;99.70;;;;;;5053376;28;20061;-75
2021/12/19 13:15:19;;;;;;;111.63;99.93;;;8.70;99.60;;;;;;5053849;28;20069;-75
2021/12/19 13:17:49;;;;;;;111.75;100.03;;;8.70;99.60;;;;;;5059171;28;20041;-74
2021/12/19 13:20:18;;;;;;;110.55;99.25;;;8.70;99.60;;;;;;5043455;28;20050;-75
2021/12/19 13:22:49;;;;;;;111.53;99.80;;;8.70;99.60;;;;;;5042192;28;20077;-75
2021/12/19 13:25:18;;;;;;;109.68;98.28;;;8.70;99.60;;;;;;5045020;28;20046;-75
2021/12/19 13:27:47;;;;;;;111.90;100.25;;;8.70;99.70;;;;;;5041418;28;20195;-75